Time;durP1;ratioP1;P1;durP2;ratioP2;P2;SDS_P1;SDS_P2;PMS_P1;PMS_P2;Temp;Humidity;BMP_temperature;BMP_pressure;BME280_temperature;BME280_humidity;BME280_pressure;Samples;Min_cycle;Max_cycle;Signal;HPM_P1;HPM_P2
2022/03/01 00:00:46;;;;;;;16.60;11.53;;;2.70;99.90;;;;;;5033304;28;20049;-52
2022/03/01 00:03:12;;;;;;;17.20;12.60;;;2.60;99.90;;;;;;5032995;28;20041;-54
2022/03/01 00:05:38;;;;;;;18.23;11.60;;;2.60;99.90;;;;;;5032746;28;20073;-54
2022/03/01 00:08:04;;;;;;;19.40;11.50;;;2.60;99.90;;;;;;5032965;28;20045;-50
2022/03/01 00:10:29;;;;;;;18.48;12.45;;;2.60;99.90;;;;;;5033333;28;20042;-50
2022/03/01 00:12:55;;;;;;;18.40;12.00;;;2.60;99.90;;;;;;5032353;28;20051;-53
2022/03/01 00:15:20;;;;;;;15.93;11.57;;;2.50;99.90;;;;;;5032446;28;20407;-53
2022/03/01 00:17:46;;;;;;;16.03;11.73;;;2.50;99.90;;;;;;5032096;28;20501;-54
2022/03/01 00:20:12;;;;;;;20.33;11.67;;;2.50;99.90;;;;;;5032787;28;20392;-51
2022/03/01 00:22:37;;;;;;;25.33;12.18;;;2.50;99.90;;;;;;5032350;28;20429;-50
2022/03/01 00:25:04;;;;;;;15.27;10.57;;;2.50;99.90;;;;;;5032190;28;20037;-50
2022/03/01 00:27:29;;;;;;;;;;;2.50;99.90;;;;;;5031896;28;20030;-55
2022/03/01 00:29:55;;;;;;;19.50;12.45;;;2.50;99.90;;;;;;5032390;28;19921;-49
2022/03/01 00:32:20;;;;;;;17.80;12.53;;;2.40;99.90;;;;;;5031952;28;20052;-49
2022/03/01 00:34:46;;;;;;;17.85;11.70;;;2.40;99.90;;;;;;5032260;28;20037;-49
2022/03/01 00:37:12;;;;;;;19.40;12.10;;;2.40;99.90;;;;;;5032004;28;20049;-49
2022/03/01 00:39:37;;;;;;;21.80;12.83;;;2.30;99.90;;;;;;5032118;28;20453;-53
2022/03/01 00:42:03;;;;;;;19.90;13.50;;;2.30;99.90;;;;;;5031335;28;20052;-49
2022/03/01 00:44:29;;;;;;;18.38;12.40;;;2.30;99.90;;;;;;5032177;28;20108;-50
2022/03/01 00:46:54;;;;;;;18.13;12.60;;;2.30;99.90;;;;;;5031801;28;20037;-52
2022/03/01 00:49:20;;;;;;;27.70;13.23;;;2.30;99.90;;;;;;5031913;28;20099;-52
2022/03/01 00:51:46;;;;;;;20.77;12.37;;;2.30;99.90;;;;;;5032095;28;20521;-49
2022/03/01 00:54:11;;;;;;;21.77;13.47;;;2.30;99.90;;;;;;5031496;28;20033;-50
2022/03/01 00:56:37;;;;;;;22.57;13.50;;;2.30;99.90;;;;;;5031391;28;20572;-52
2022/03/01 00:59:02;;;;;;;20.00;13.80;;;2.20;99.90;;;;;;5031123;28;20060;-50
2022/03/01 01:01:28;;;;;;;17.23;12.13;;;2.20;99.90;;;;;;5031632;28;20045;-54
2022/03/01 01:03:54;;;;;;;22.13;13.57;;;2.20;99.90;;;;;;5031182;28;20048;-49
2022/03/01 01:06:19;;;;;;;21.80;13.20;;;2.20;99.90;;;;;;5031518;28;20029;-49
2022/03/01 01:08:45;;;;;;;18.55;12.57;;;2.10;99.90;;;;;;5031243;28;20037;-52
2022/03/01 01:11:12;;;;;;;18.23;12.73;;;2.10;99.90;;;;;;5031459;28;20051;-52
2022/03/01 01:13:37;;;;;;;19.83;12.80;;;2.10;99.90;;;;;;5030878;28;20065;-50
2022/03/01 01:16:03;;;;;;;23.80;13.80;;;2.10;99.90;;;;;;5031290;28;20041;-49
2022/03/01 01:18:29;;;;;;;18.15;12.15;;;2.10;99.90;;;;;;5031417;28;20457;-50
2022/03/01 01:20:55;;;;;;;21.10;12.33;;;2.10;99.90;;;;;;5030943;28;20505;-52
2022/03/01 01:23:20;;;;;;;18.70;12.20;;;2.10;99.90;;;;;;5031046;28;20117;-50
2022/03/01 01:25:46;;;;;;;19.63;13.27;;;2.10;99.90;;;;;;5030715;28;20640;-50
2022/03/01 01:28:12;;;;;;;19.50;13.82;;;2.00;99.90;;;;;;5029877;28;20048;-50
2022/03/01 01:30:38;;;;;;;17.63;12.48;;;2.00;99.90;;;;;;5031206;28;20423;-53
2022/03/01 01:33:04;;;;;;;21.57;13.80;;;2.00;99.90;;;;;;5030989;28;20075;-53
2022/03/01 01:35:31;;;;;;;17.73;13.47;;;2.00;99.90;;;;;;5030580;28;20037;-49
2022/03/01 01:37:57;;;;;;;18.90;13.48;;;1.90;99.90;;;;;;5030790;28;20116;-53
2022/03/01 01:40:29;;;;;;;24.80;14.37;;;1.80;99.90;;;;;;5030754;28;20128;-52
2022/03/01 01:42:56;;;;;;;21.25;14.82;;;1.80;99.90;;;;;;5030874;28;20399;-50
2022/03/01 01:45:22;;;;;;;21.83;14.13;;;1.90;99.90;;;;;;5030218;28;20041;-49
2022/03/01 01:47:49;;;;;;;;;;;1.90;99.90;;;;;;5031533;28;20038;-49
2022/03/01 01:50:15;;;;;;;20.85;13.82;;;1.90;99.90;;;;;;5030610;28;19927;-49
2022/03/01 01:52:48;;;;;;;20.85;14.20;;;1.90;99.90;;;;;;5030652;28;20172;-52
2022/03/01 01:55:15;;;;;;;19.20;13.32;;;1.80;99.90;;;;;;5029983;28;20049;-50
2022/03/01 01:57:41;;;;;;;19.92;14.05;;;1.80;99.90;;;;;;5030812;28;20041;-49
2022/03/01 02:00:09;;;;;;;23.00;13.57;;;1.80;99.90;;;;;;5030121;28;20041;-49
2022/03/01 02:02:35;;;;;;;21.40;13.60;;;1.70;99.90;;;;;;5030516;28;20401;-49
2022/03/01 02:05:02;;;;;;;19.23;12.80;;;1.70;99.90;;;;;;5030109;28;20029;-49
2022/03/01 02:07:28;;;;;;;22.00;14.75;;;1.70;99.90;;;;;;5030900;28;20037;-52
2022/03/01 02:09:53;;;;;;;19.77;14.30;;;1.70;99.90;;;;;;5029881;28;20677;-50
2022/03/01 02:12:19;;;;;;;19.70;13.17;;;1.70;99.90;;;;;;5030696;28;20343;-50
2022/03/01 02:14:44;;;;;;;22.57;14.93;;;1.70;99.90;;;;;;5029822;28;20055;-51
2022/03/01 02:17:11;;;;;;;19.30;12.40;;;1.70;99.90;;;;;;5030496;28;20041;-52
2022/03/01 02:19:37;;;;;;;19.65;14.05;;;1.80;99.90;;;;;;5012049;28;20072;-50
2022/03/01 02:22:06;;;;;;;21.23;14.77;;;1.80;99.90;;;;;;5029917;28;20041;-50
2022/03/01 02:24:33;;;;;;;20.33;14.40;;;1.80;99.90;;;;;;5030104;28;20045;-50
2022/03/01 02:27:04;;;;;;;19.80;13.82;;;1.80;99.90;;;;;;5030365;28;20044;-50
2022/03/01 02:29:30;;;;;;;23.50;15.05;;;1.80;99.90;;;;;;5030068;28;20069;-49
2022/03/01 02:31:57;;;;;;;24.75;14.57;;;1.70;99.90;;;;;;5030397;28;20037;-48
2022/03/01 02:34:23;;;;;;;20.55;14.88;;;1.70;99.90;;;;;;5030356;28;20042;-49
2022/03/01 02:36:49;;;;;;;20.53;14.50;;;1.70;99.90;;;;;;5029778;28;20044;-49
2022/03/01 02:39:15;;;;;;;21.95;15.07;;;1.70;99.90;;;;;;5030129;28;20057;-51
2022/03/01 02:41:43;;;;;;;22.27;16.48;;;1.70;99.90;;;;;;5029810;28;20490;-52
2022/03/01 02:44:10;;;;;;;20.45;14.75;;;1.70;99.90;;;;;;5011996;28;20034;-51
2022/03/01 02:46:36;;;;;;;23.58;14.20;;;1.70;99.90;;;;;;5029275;28;20091;-48
2022/03/01 02:49:02;;;;;;;23.52;15.30;;;1.80;99.90;;;;;;5029855;28;20083;-50
2022/03/01 02:51:28;;;;;;;28.63;15.23;;;1.70;99.90;;;;;;5029702;28;20160;-53
2022/03/01 02:53:54;;;;;;;21.63;14.67;;;1.80;99.90;;;;;;5030101;28;20113;-53
2022/03/01 02:56:20;;;;;;;24.20;14.35;;;1.80;99.90;;;;;;5029029;28;20116;-51
2022/03/01 02:58:45;;;;;;;23.27;15.52;;;1.80;99.90;;;;;;5029002;28;20137;-49
2022/03/01 03:01:11;;;;;;;20.77;15.07;;;1.80;99.90;;;;;;5029046;28;20546;-49
2022/03/01 03:03:37;;;;;;;20.20;13.77;;;1.80;99.90;;;;;;5030020;28;20029;-54
2022/03/01 03:06:03;;;;;;;24.03;15.33;;;1.80;99.90;;;;;;5029274;28;20556;-48
2022/03/01 03:08:28;;;;;;;24.98;15.48;;;1.70;99.90;;;;;;5029875;28;20034;-49
2022/03/01 03:10:54;;;;;;;21.77;14.60;;;1.70;99.90;;;;;;5029598;28;20041;-48
2022/03/01 03:13:20;;;;;;;21.98;15.38;;;1.70;99.90;;;;;;5029645;28;20097;-50
2022/03/01 03:15:47;;;;;;;27.75;15.00;;;1.60;99.90;;;;;;5028873;28;20042;-49
2022/03/01 03:18:13;;;;;;;25.33;15.00;;;1.60;99.90;;;;;;5029800;28;20495;-50
2022/03/01 03:20:38;;;;;;;23.70;14.68;;;1.60;99.90;;;;;;5029122;28;20057;-49
2022/03/01 03:23:05;;;;;;;23.50;15.67;;;1.60;99.90;;;;;;5030009;28;20482;-51
2022/03/01 03:25:31;;;;;;;22.48;14.25;;;1.60;99.90;;;;;;5029164;28;20041;-50
2022/03/01 03:27:57;;;;;;;23.70;15.07;;;1.70;99.90;;;;;;5029713;28;20087;-49
2022/03/01 03:30:22;;;;;;;23.37;16.27;;;1.70;99.90;;;;;;5028902;28;20045;-49
2022/03/01 03:32:48;;;;;;;21.83;14.40;;;1.70;99.90;;;;;;5029743;28;20048;-51
2022/03/01 03:35:13;;;;;;;18.77;14.03;;;1.70;99.90;;;;;;5029143;28;20037;-48
2022/03/01 03:37:39;;;;;;;20.07;14.50;;;1.70;99.90;;;;;;5029989;28;20777;-51
2022/03/01 03:40:05;;;;;;;21.97;14.90;;;1.70;99.90;;;;;;5029002;28;20045;-51
2022/03/01 03:42:31;;;;;;;21.00;16.17;;;1.70;99.90;;;;;;5027910;28;20050;-49
2022/03/01 03:44:56;;;;;;;25.27;16.67;;;1.70;99.90;;;;;;5028438;28;20040;-49
2022/03/01 03:47:22;;;;;;;20.50;14.90;;;1.70;99.90;;;;;;5029724;28;20041;-53
2022/03/01 03:49:48;;;;;;;23.40;14.70;;;1.70;99.90;;;;;;5029350;28;20068;-52
2022/03/01 03:52:14;;;;;;;;;;;1.70;99.90;;;;;;5011896;28;20083;-50
2022/03/01 03:54:39;;;;;;;22.42;14.65;;;1.60;99.90;;;;;;4995703;28;20264;-49
2022/03/01 03:57:08;;;;;;;22.23;14.13;;;1.60;99.90;;;;;;5030108;28;20044;-49
2022/03/01 03:59:38;;;;;;;22.40;13.93;;;1.70;99.90;;;;;;5032971;28;20042;-49
2022/03/01 04:02:04;;;;;;;25.65;16.27;;;1.60;99.90;;;;;;5032538;28;20062;-50
2022/03/01 04:04:30;;;;;;;25.00;14.70;;;1.60;99.90;;;;;;5032773;28;20049;-52
2022/03/01 04:06:55;;;;;;;22.63;14.43;;;1.60;99.90;;;;;;5032337;28;20124;-52
2022/03/01 04:09:21;;;;;;;25.90;15.60;;;1.60;99.90;;;;;;5032597;28;20095;-49
2022/03/01 04:11:46;;;;;;;24.37;16.47;;;1.70;99.90;;;;;;5032144;28;20076;-49
2022/03/01 04:14:12;;;;;;;22.17;15.20;;;1.70;99.90;;;;;;5032698;28;20041;-50
2022/03/01 04:16:42;;;;;;;24.40;15.07;;;1.70;99.90;;;;;;5032228;28;20052;-50
2022/03/01 04:19:08;;;;;;;23.08;14.77;;;1.70;99.90;;;;;;5032748;28;20045;-49
2022/03/01 04:21:34;;;;;;;22.10;14.88;;;1.60;99.90;;;;;;5032170;28;20045;-49
2022/03/01 04:23:59;;;;;;;24.43;15.73;;;1.70;99.90;;;;;;5032460;28;20041;-51
2022/03/01 04:26:25;;;;;;;22.73;15.00;;;1.60;99.90;;;;;;5032134;28;20472;-49
2022/03/01 04:28:51;;;;;;;27.50;16.80;;;1.70;99.90;;;;;;5032376;28;20505;-52
2022/03/01 04:31:16;;;;;;;23.77;14.77;;;1.60;99.90;;;;;;5014424;28;20038;-50
2022/03/01 04:33:42;;;;;;;24.17;15.10;;;1.60;99.90;;;;;;5032673;28;20045;-48
2022/03/01 04:36:08;;;;;;;21.73;15.03;;;1.60;99.90;;;;;;5031689;28;20506;-49
2022/03/01 04:38:34;;;;;;;22.58;15.38;;;1.60;99.90;;;;;;5032138;28;20124;-49
2022/03/01 04:41:00;;;;;;;23.00;16.30;;;1.50;99.90;;;;;;5031368;28;20069;-49
2022/03/01 04:43:26;;;;;;;24.42;16.67;;;1.50;99.90;;;;;;5032374;28;20084;-49
2022/03/01 04:45:52;;;;;;;23.60;15.10;;;1.50;99.90;;;;;;5031566;28;20037;-52
2022/03/01 04:48:18;;;;;;;21.75;15.40;;;1.50;99.90;;;;;;5032160;28;20128;-50
2022/03/01 04:50:43;;;;;;;24.48;15.70;;;1.50;99.90;;;;;;5031920;28;20073;-48
2022/03/01 04:53:10;;;;;;;24.13;15.43;;;1.50;99.90;;;;;;5031269;28;20084;-49
2022/03/01 04:55:36;;;;;;;23.67;16.40;;;1.50;99.90;;;;;;5014092;28;20053;-50
2022/03/01 04:58:02;;;;;;;24.33;15.45;;;1.50;99.90;;;;;;5031525;28;20183;-49
2022/03/01 05:00:28;;;;;;;26.17;15.35;;;1.50;99.90;;;;;;5031794;28;20048;-51
2022/03/01 05:02:53;;;;;;;33.17;18.37;;;1.50;99.90;;;;;;5031267;28;20057;-51
2022/03/01 05:05:19;;;;;;;25.07;15.43;;;1.50;99.90;;;;;;5031355;28;20123;-52
2022/03/01 05:07:46;;;;;;;26.70;15.60;;;1.50;99.90;;;;;;5030800;28;20490;-50
2022/03/01 05:10:17;;;;;;;23.52;15.07;;;1.50;99.90;;;;;;5031372;28;20560;-51
2022/03/01 05:12:52;;;;;;;27.98;15.07;;;1.50;99.90;;;;;;5031364;28;20049;-49
2022/03/01 05:15:20;;;;;;;22.23;14.52;;;1.50;99.90;;;;;;5031249;28;20159;-49
2022/03/01 05:17:46;;;;;;;23.98;15.35;;;1.50;99.90;;;;;;5031513;28;20059;-51
2022/03/01 05:20:13;;;;;;;26.90;15.85;;;1.50;99.90;;;;;;5031390;28;20139;-51
2022/03/01 05:22:40;;;;;;;24.88;16.63;;;1.50;99.90;;;;;;5030932;28;20041;-50
2022/03/01 05:25:09;;;;;;;23.60;17.20;;;1.50;99.90;;;;;;5012927;28;20049;-50
2022/03/01 05:27:39;;;;;;;28.77;17.05;;;1.50;99.90;;;;;;5030950;28;20069;-49
2022/03/01 05:30:07;;;;;;;24.45;15.63;;;1.50;99.90;;;;;;5030954;28;20053;-50
2022/03/01 05:32:37;;;;;;;33.80;17.08;;;1.50;99.90;;;;;;5030654;28;20075;-49
2022/03/01 05:35:04;;;;;;;24.52;17.13;;;1.50;99.90;;;;;;5030476;28;20134;-49
2022/03/01 05:37:30;;;;;;;27.15;16.67;;;1.50;99.90;;;;;;5030981;28;20120;-53
2022/03/01 05:39:55;;;;;;;25.23;16.08;;;1.50;99.90;;;;;;5030850;28;20041;-49
2022/03/01 05:42:22;;;;;;;24.33;15.70;;;1.50;99.90;;;;;;5029746;28;20033;-49
2022/03/01 05:44:47;;;;;;;26.40;17.38;;;1.40;99.90;;;;;;5030682;28;20045;-53
2022/03/01 05:47:13;;;;;;;28.07;17.70;;;1.50;99.90;;;;;;5030893;28;20372;-51
2022/03/01 05:49:38;;;;;;;27.07;16.77;;;1.40;99.90;;;;;;5031030;28;20124;-50
2022/03/01 05:52:05;;;;;;;27.90;18.13;;;1.50;99.90;;;;;;5030864;28;20518;-48
2022/03/01 05:54:30;;;;;;;26.88;17.85;;;1.50;99.90;;;;;;5031036;28;20041;-50
2022/03/01 05:56:56;;;;;;;28.40;17.60;;;1.40;99.90;;;;;;5030181;28;20107;-51
2022/03/01 05:59:22;;;;;;;26.63;17.13;;;1.50;99.90;;;;;;5030764;28;20037;-51
2022/03/01 06:01:47;;;;;;;25.15;17.40;;;1.50;99.90;;;;;;5012926;28;20041;-53
2022/03/01 06:04:13;;;;;;;26.20;17.47;;;1.40;99.90;;;;;;5030094;28;20029;-54
2022/03/01 06:06:39;;;;;;;28.33;17.87;;;1.50;99.90;;;;;;5030423;28;20083;-49
2022/03/01 06:09:04;;;;;;;25.67;18.23;;;1.40;99.90;;;;;;5030581;28;20029;-49
2022/03/01 06:11:31;;;;;;;25.43;17.03;;;1.50;99.90;;;;;;5030254;28;20487;-49
2022/03/01 06:13:57;;;;;;;25.40;18.48;;;1.40;99.90;;;;;;5011808;28;20491;-49
2022/03/01 06:16:22;;;;;;;29.07;19.53;;;1.50;99.90;;;;;;5013013;28;20033;-53
2022/03/01 06:18:48;;;;;;;33.20;17.97;;;1.40;99.90;;;;;;5030532;28;20033;-49
2022/03/01 06:21:13;;;;;;;31.97;19.77;;;1.50;99.90;;;;;;5030444;28;20570;-51
2022/03/01 06:23:39;;;;;;;28.67;18.83;;;1.50;99.90;;;;;;5030041;28;20515;-54
2022/03/01 06:26:04;;;;;;;28.10;18.77;;;1.50;99.90;;;;;;5028013;28;20091;-50
2022/03/01 06:28:30;;;;;;;27.97;17.90;;;1.50;99.90;;;;;;5005699;28;20076;-52
2022/03/01 06:30:56;;;;;;;29.23;19.00;;;1.50;99.90;;;;;;5024012;28;20042;-50
2022/03/01 06:33:22;;;;;;;28.40;18.30;;;1.60;99.90;;;;;;5029126;28;20048;-51
2022/03/01 06:35:47;;;;;;;27.70;22.83;;;1.60;99.90;;;;;;5028965;28;20045;-51
2022/03/01 06:38:13;;;;;;;37.53;27.87;;;1.60;99.90;;;;;;5030069;28;20038;-51
2022/03/01 06:40:38;;;;;;;29.60;19.97;;;1.70;99.90;;;;;;5028683;28;20042;-51
2022/03/01 06:43:04;;;;;;;26.57;17.93;;;1.70;99.90;;;;;;5029987;28;20038;-51
2022/03/01 06:45:32;;;;;;;30.63;16.23;;;1.80;99.90;;;;;;5029705;28;20037;-49
2022/03/01 06:47:58;;;;;;;29.50;18.85;;;1.80;99.90;;;;;;5030116;28;20034;-51
2022/03/01 06:50:25;;;;;;;26.05;17.48;;;1.80;99.90;;;;;;5030244;28;20091;-52
2022/03/01 06:52:50;;;;;;;25.35;17.15;;;1.80;99.90;;;;;;5029653;28;20073;-49
2022/03/01 06:55:17;;;;;;;29.23;18.42;;;1.80;99.90;;;;;;5029640;28;20084;-49
2022/03/01 06:57:43;;;;;;;33.55;19.30;;;1.80;99.90;;;;;;5029962;28;20095;-53
2022/03/01 07:00:10;;;;;;;27.15;17.65;;;1.80;99.90;;;;;;5029779;28;20045;-50
2022/03/01 07:02:38;;;;;;;26.33;16.83;;;1.80;99.90;;;;;;5029815;28;20030;-53
2022/03/01 07:05:09;;;;;;;26.90;17.15;;;1.80;99.90;;;;;;5029480;28;20042;-50
2022/03/01 07:07:35;;;;;;;23.83;16.50;;;1.80;99.90;;;;;;5029432;28;20083;-52
2022/03/01 07:10:00;;;;;;;23.48;17.38;;;1.80;99.90;;;;;;5029609;28;20518;-49
2022/03/01 07:12:26;;;;;;;29.20;19.20;;;1.80;99.90;;;;;;5029950;28;20042;-51
2022/03/01 07:14:53;;;;;;;26.63;17.55;;;1.90;99.90;;;;;;5029262;28;20073;-54
2022/03/01 07:17:19;;;;;;;;;;;1.90;99.90;;;;;;5030142;28;20116;-52
2022/03/01 07:19:44;;;;;;;25.80;16.05;;;1.90;99.90;;;;;;5027148;28;20075;-53
2022/03/01 07:22:10;;;;;;;26.97;18.03;;;2.00;99.90;;;;;;5029095;28;20128;-51
2022/03/01 07:24:36;;;;;;;27.20;16.90;;;2.00;99.90;;;;;;5028148;28;20026;-52
2022/03/01 07:27:01;;;;;;;29.10;17.30;;;2.20;99.90;;;;;;5031463;28;20037;-54
2022/03/01 07:29:27;;;;;;;25.23;16.80;;;2.40;99.90;;;;;;5033594;28;20045;-52
2022/03/01 07:31:53;;;;;;;24.88;17.20;;;2.70;99.90;;;;;;5033194;28;20077;-52
2022/03/01 07:34:19;;;;;;;26.23;19.23;;;2.90;99.90;;;;;;5033949;28;20087;-49
2022/03/01 07:36:44;;;;;;;27.07;17.67;;;3.00;99.90;;;;;;5032606;28;20514;-52
2022/03/01 07:39:10;;;;;;;28.00;16.63;;;3.00;99.90;;;;;;5033388;28;20037;-52
2022/03/01 07:41:35;;;;;;;29.23;18.07;;;3.00;99.90;;;;;;5013701;28;20518;-52
2022/03/01 07:44:01;;;;;;;39.33;20.23;;;3.00;99.90;;;;;;5017628;28;20369;-50
2022/03/01 07:46:27;;;;;;;28.63;17.00;;;3.00;99.90;;;;;;5027241;28;20052;-52
2022/03/01 07:48:52;;;;;;;25.93;18.20;;;3.00;99.90;;;;;;5031815;28;20039;-49
2022/03/01 07:51:18;;;;;;;32.40;18.73;;;3.10;99.90;;;;;;5032538;28;20116;-50
2022/03/01 07:53:44;;;;;;;29.00;17.93;;;3.10;99.90;;;;;;5033291;28;20044;-50
2022/03/01 07:56:09;;;;;;;26.00;17.27;;;3.10;99.90;;;;;;5032854;28;20049;-49
2022/03/01 07:58:35;;;;;;;30.13;18.17;;;3.10;99.90;;;;;;5033362;28;20562;-53
2022/03/01 08:01:00;;;;;;;28.50;17.67;;;3.20;99.90;;;;;;5031648;28;20037;-52
2022/03/01 08:03:26;;;;;;;32.27;18.93;;;3.30;99.90;;;;;;5032559;28;20037;-52
2022/03/01 08:05:52;;;;;;;26.83;17.87;;;3.40;99.90;;;;;;5030472;28;20033;-50
2022/03/01 08:08:17;;;;;;;25.03;16.77;;;3.40;99.90;;;;;;5033060;28;20034;-49
2022/03/01 08:10:43;;;;;;;24.60;17.30;;;3.50;99.90;;;;;;5032523;28;20803;-52
2022/03/01 08:13:08;;;;;;;25.17;16.70;;;3.50;99.90;;;;;;5032718;28;20441;-53
2022/03/01 08:15:34;;;;;;;32.97;18.43;;;3.60;99.90;;;;;;5031792;28;20054;-50
2022/03/01 08:18:00;;;;;;;23.13;16.08;;;3.70;99.90;;;;;;5031794;28;20409;-49
2022/03/01 08:20:27;;;;;;;23.77;16.13;;;3.80;99.90;;;;;;5031864;28;20507;-53
2022/03/01 08:22:52;;;;;;;;;;;3.90;99.90;;;;;;5032295;28;20094;-54
2022/03/01 08:25:19;;;;;;;25.63;17.02;;;4.00;99.90;;;;;;5032298;28;19975;-54
2022/03/01 08:27:45;;;;;;;28.00;18.60;;;4.10;99.90;;;;;;5014379;28;20049;-52
2022/03/01 08:30:12;;;;;;;30.77;18.58;;;4.30;99.90;;;;;;5032538;28;20045;-56
2022/03/01 08:32:37;;;;;;;24.40;17.13;;;4.30;99.90;;;;;;5030688;28;20099;-54
2022/03/01 08:35:03;;;;;;;29.65;17.80;;;4.30;99.90;;;;;;5030974;28;20037;-55
2022/03/01 08:37:29;;;;;;;26.85;17.10;;;4.30;99.90;;;;;;5031283;28;20452;-55
2022/03/01 08:39:54;;;;;;;28.20;18.37;;;4.20;99.90;;;;;;5031752;28;20038;-54
2022/03/01 08:42:20;;;;;;;25.10;16.10;;;4.20;99.90;;;;;;5031703;28;20042;-53
2022/03/01 08:44:46;;;;;;;41.63;19.52;;;4.20;99.90;;;;;;5030823;28;20394;-55
2022/03/01 08:47:11;;;;;;;64.90;19.83;;;4.20;99.90;;;;;;5019071;28;20053;-51
2022/03/01 08:49:37;;;;;;;30.77;18.23;;;4.20;99.90;;;;;;5025758;28;20124;-53
2022/03/01 08:52:03;;;;;;;25.90;18.23;;;4.20;99.90;;;;;;5031152;28;20048;-53
2022/03/01 08:54:28;;;;;;;30.63;18.92;;;4.20;99.90;;;;;;5031482;28;20057;-54
2022/03/01 08:56:54;;;;;;;25.47;16.40;;;4.30;99.90;;;;;;5031497;28;20037;-48
2022/03/01 08:59:22;;;;;;;29.87;18.87;;;4.30;99.90;;;;;;5014073;28;20049;-54
2022/03/01 09:01:47;;;;;;;29.50;18.23;;;4.40;99.90;;;;;;5031151;28;20060;-52
2022/03/01 09:04:13;;;;;;;30.37;18.13;;;4.40;99.90;;;;;;5031385;28;20042;-53
2022/03/01 09:06:38;;;;;;;27.77;17.47;;;4.40;99.90;;;;;;5012747;28;20037;-52
2022/03/01 09:09:04;;;;;;;24.97;16.50;;;4.50;99.90;;;;;;5031496;28;20037;-52
2022/03/01 09:11:30;;;;;;;25.42;17.33;;;4.60;99.90;;;;;;5030954;28;20103;-54
2022/03/01 09:13:56;;;;;;;25.55;16.15;;;4.60;99.90;;;;;;5031372;28;20429;-51
2022/03/01 09:16:21;;;;;;;26.17;18.27;;;4.80;99.90;;;;;;5031114;28;20441;-54
2022/03/01 09:18:47;;;;;;;26.00;17.50;;;4.90;99.90;;;;;;5030689;28;20320;-53
2022/03/01 09:21:13;;;;;;;24.03;16.20;;;5.00;99.90;;;;;;5031076;28;20517;-51
2022/03/01 09:23:40;;;;;;;29.25;17.73;;;5.20;99.90;;;;;;5031045;28;20281;-53
2022/03/01 09:26:05;;;;;;;19.00;14.20;;;5.40;99.90;;;;;;5031244;28;20049;-55
2022/03/01 09:28:31;;;;;;;19.93;12.70;;;5.50;99.90;;;;;;5030772;28;20037;-55
2022/03/01 09:30:56;;;;;;;20.73;12.87;;;5.60;99.90;;;;;;5030218;28;20033;-55
2022/03/01 09:33:22;;;;;;;16.73;12.30;;;5.70;99.90;;;;;;5030802;28;20116;-50
2022/03/01 09:35:48;;;;;;;20.33;11.83;;;5.80;99.40;;;;;;5030100;28;20052;-53
2022/03/01 09:38:13;;;;;;;20.43;12.77;;;5.90;99.40;;;;;;5031202;28;20037;-55
2022/03/01 09:40:39;;;;;;;18.17;11.20;;;6.10;97.90;;;;;;5027612;28;20041;-55
2022/03/01 09:43:05;;;;;;;18.83;13.17;;;6.20;97.00;;;;;;5031234;28;20486;-55
2022/03/01 09:45:31;;;;;;;20.17;12.07;;;6.40;96.50;;;;;;5030491;28;20064;-53
2022/03/01 09:47:56;;;;;;;17.27;11.60;;;6.50;95.90;;;;;;5030987;28;20522;-53
2022/03/01 09:50:27;;;;;;;17.57;12.33;;;6.50;95.60;;;;;;5029874;28;20072;-54
2022/03/01 09:52:58;;;;;;;17.42;12.07;;;6.60;94.30;;;;;;5030392;28;20099;-50
2022/03/01 09:55:24;;;;;;;16.35;11.50;;;6.60;93.40;;;;;;5030603;28;20045;-52
2022/03/01 09:57:49;;;;;;;16.60;12.82;;;6.70;93.40;;;;;;5030636;28;20040;-54
2022/03/01 10:00:15;;;;;;;17.90;12.73;;;6.70;92.50;;;;;;5030564;28;20494;-55
2022/03/01 10:02:43;;;;;;;16.95;12.45;;;6.80;92.10;;;;;;5030690;28;20079;-54
2022/03/01 10:05:10;;;;;;;23.15;11.65;;;6.80;91.20;;;;;;5029677;28;20478;-53
2022/03/01 10:07:36;;;;;;;21.40;13.25;;;6.90;91.70;;;;;;5030316;28;20071;-53
2022/03/01 10:10:16;;;;;;;16.13;12.00;;;7.00;91.70;;;;;;5012246;28;20045;-51
2022/03/01 10:12:53;;;;;;;16.52;11.88;;;7.10;91.80;;;;;;5018711;28;20081;-53
2022/03/01 10:15:27;;;;;;;17.15;11.18;;;7.10;91.50;;;;;;5010491;28;20368;-55
2022/03/01 10:17:52;;;;;;;16.42;12.35;;;7.20;90.90;;;;;;5030153;28;20441;-54
2022/03/01 10:20:19;;;;;;;18.50;13.50;;;7.20;90.50;;;;;;5029389;28;20045;-51
2022/03/01 10:22:50;;;;;;;15.50;12.15;;;7.20;88.90;;;;;;5012315;28;20041;-52
2022/03/01 10:25:18;;;;;;;18.70;11.90;;;7.20;88.20;;;;;;5027908;28;20037;-52
2022/03/01 10:27:45;;;;;;;19.73;12.80;;;7.10;89.30;;;;;;5029564;28;20029;-51
2022/03/01 10:30:12;;;;;;;18.80;12.23;;;7.10;90.10;;;;;;5029842;28;20045;-53
2022/03/01 10:32:38;;;;;;;17.90;12.07;;;7.20;89.80;;;;;;5029283;28;20041;-52
2022/03/01 10:35:09;;;;;;;16.83;11.30;;;7.20;89.00;;;;;;5028608;28;20040;-52
2022/03/01 10:37:37;;;;;;;17.98;11.80;;;7.30;90.10;;;;;;5030026;28;20133;-53
2022/03/01 10:40:15;;;;;;;17.73;12.60;;;7.40;90.60;;;;;;5029886;28;20042;-53
2022/03/01 10:42:42;;;;;;;18.35;11.80;;;7.60;90.20;;;;;;5027696;28;20048;-53
2022/03/01 10:45:11;;;;;;;19.27;12.88;;;7.70;89.40;;;;;;5029167;28;20120;-54
2022/03/01 10:47:37;;;;;;;19.25;12.77;;;7.80;90.40;;;;;;5029367;28;20111;-55
2022/03/01 10:50:11;;;;;;;21.55;12.80;;;7.90;90.70;;;;;;4994878;28;20513;-54
2022/03/01 10:52:39;;;;;;;17.83;12.60;;;8.10;90.00;;;;;;5028176;28;20584;-53
2022/03/01 10:55:20;;;;;;;19.65;12.52;;;8.10;89.10;;;;;;5028555;28;20091;-54
2022/03/01 10:57:59;;;;;;;19.95;13.00;;;8.30;89.20;;;;;;5012125;28;20045;-51
2022/03/01 11:00:24;;;;;;;16.92;12.25;;;8.40;87.50;;;;;;5030148;28;20041;-55
2022/03/01 11:02:50;;;;;;;19.70;12.43;;;8.60;85.30;;;;;;5032134;28;20045;-54
2022/03/01 11:05:16;;;;;;;21.47;12.60;;;8.70;84.40;;;;;;5032431;28;20033;-53
2022/03/01 11:07:43;;;;;;;15.80;11.63;;;8.70;83.30;;;;;;5032162;28;20581;-55
2022/03/01 11:10:12;;;;;;;16.52;11.73;;;8.80;82.70;;;;;;5033253;28;20546;-53
2022/03/01 11:12:39;;;;;;;18.77;12.40;;;8.90;84.60;;;;;;5032178;28;20092;-53
2022/03/01 11:15:15;;;;;;;19.45;12.88;;;9.10;83.70;;;;;;5021018;28;20065;-54
2022/03/01 11:17:46;;;;;;;16.30;12.50;;;9.10;79.90;;;;;;5033938;28;20041;-55
2022/03/01 11:20:15;;;;;;;18.98;12.45;;;9.20;81.40;;;;;;5032957;28;20045;-54
2022/03/01 11:22:44;;;;;;;14.48;12.02;;;9.20;80.60;;;;;;5032923;28;20425;-55
2022/03/01 11:25:20;;;;;;;21.00;13.20;;;9.30;80.10;;;;;;5033627;28;20033;-55
2022/03/01 11:27:48;;;;;;;16.30;12.27;;;9.40;79.20;;;;;;5033332;28;20514;-54
2022/03/01 11:30:15;;;;;;;19.13;11.80;;;9.50;79.30;;;;;;5021112;28;20041;-54
2022/03/01 11:32:45;;;;;;;20.13;13.43;;;9.60;80.20;;;;;;5031223;28;20144;-55
2022/03/01 11:35:19;;;;;;;17.05;12.23;;;9.80;80.20;;;;;;5025606;28;20038;-54
2022/03/01 11:37:46;;;;;;;21.70;12.73;;;9.90;77.60;;;;;;5032434;28;20087;-54
2022/03/01 11:40:24;;;;;;;;;;;10.00;76.60;;;;;;5033352;28;20165;-55
2022/03/01 11:42:51;;;;;;;17.13;12.52;;;10.00;75.30;;;;;;5032961;28;19917;-55
2022/03/01 11:45:17;;;;;;;;;;;10.00;73.80;;;;;;5033408;28;20414;-54
2022/03/01 11:47:42;;;;;;;21.45;13.30;;;10.00;76.10;;;;;;5033056;28;19917;-55
2022/03/01 11:50:18;;;;;;;19.13;13.30;;;10.00;77.40;;;;;;5033128;28;20037;-55
2022/03/01 11:53:01;;;;;;;19.80;14.20;;;10.00;76.10;;;;;;5031593;28;20045;-55
2022/03/01 11:55:36;;;;;;;16.65;12.20;;;9.90;75.00;;;;;;5032352;28;20124;-55
2022/03/01 11:58:03;;;;;;;19.50;12.30;;;9.80;74.30;;;;;;5031767;28;20119;-55
2022/03/01 12:00:29;;;;;;;18.38;11.85;;;9.80;75.40;;;;;;5032556;28;20038;-55
2022/03/01 12:02:58;;;;;;;15.43;12.10;;;9.70;74.30;;;;;;5032309;28;20037;-55
2022/03/01 12:05:25;;;;;;;16.13;12.00;;;9.70;75.80;;;;;;5032354;28;20033;-54
2022/03/01 12:07:52;;;;;;;17.67;12.20;;;9.60;75.80;;;;;;5032287;28;20064;-55
2022/03/01 12:10:24;;;;;;;16.73;12.20;;;9.50;74.40;;;;;;5032518;28;20045;-54
2022/03/01 12:12:53;;;;;;;15.30;12.25;;;9.50;75.70;;;;;;5031913;28;20045;-55
2022/03/01 12:15:30;;;;;;;15.40;13.02;;;9.50;75.60;;;;;;5032232;28;20375;-55
2022/03/01 12:17:57;;;;;;;18.25;13.80;;;9.40;75.00;;;;;;5032971;28;20088;-55
2022/03/01 12:20:24;;;;;;;16.55;12.13;;;9.40;75.00;;;;;;5032259;28;20041;-55
2022/03/01 12:22:49;;;;;;;;;;;9.30;75.10;;;;;;5032841;28;20038;-55
2022/03/01 12:25:16;;;;;;;20.27;11.50;;;9.30;74.30;;;;;;5032361;28;20271;-55
2022/03/01 12:27:43;;;;;;;17.45;12.85;;;9.30;74.70;;;;;;5032494;28;20053;-54
2022/03/01 12:30:09;;;;;;;15.40;12.00;;;9.20;75.60;;;;;;5032773;28;20048;-50
2022/03/01 12:32:35;;;;;;;18.00;11.90;;;9.20;73.60;;;;;;5031679;28;20516;-49
2022/03/01 12:35:02;;;;;;;17.52;12.77;;;9.10;73.60;;;;;;5031478;28;20531;-50